Terminal Aerodrome Forecast
Issued by NWS

Current Version | Previous Version | Text Only | Print | Product List | Glossary On
Versions: 1 2 3 4 5 6 7 8 9 10 11 12 13 14 15 16 17 18 19
000
FTUS41 KLWX 110525
TAFMTN
TAF
KMTN 110525Z 1106/1206 24004KT P6SM VCSH SCT050 BKN130
     FM111200 30004KT P6SM SCT025 BKN130
     FM111500 29009KT P6SM SCT060
     FM120000 28004KT P6SM SCT050 BKN100
     FM120500 32008G16KT P6SM SCT050 BKN090
     AMD NOT SKED=

USA.gov is the U.S. government's official web portal to all federal, state and local government web resources and services.